createdAt,value
2017-11-05T00:04:25.010Z,997.90
2017-11-05T00:09:21.409Z,997.93
2017-11-05T00:14:17.015Z,997.85
2017-11-05T00:19:12.737Z,997.92
2017-11-05T00:24:08.684Z,997.95
2017-11-05T00:29:06.496Z,997.88
2017-11-05T00:34:01.685Z,997.86
2017-11-05T00:38:57.472Z,997.88
2017-11-05T00:43:53.063Z,997.80
2017-11-05T00:48:48.527Z,997.85
2017-11-05T00:53:44.805Z,997.88
2017-11-05T00:58:41.104Z,997.85
2017-11-05T01:03:37.906Z,997.95
2017-11-05T01:08:33.548Z,997.96
2017-11-05T01:13:29.454Z,997.99
2017-11-05T01:18:25.248Z,997.96
2017-11-05T01:23:23.090Z,997.89
2017-11-05T01:28:18.660Z,997.99
2017-11-05T01:33:14.601Z,998.01
2017-11-05T01:38:10.094Z,997.96
2017-11-05T01:43:06.207Z,998.08
2017-11-05T01:48:02.072Z,997.93
2017-11-05T01:52:58.117Z,998.01
2017-11-05T01:57:54.953Z,997.96
2017-11-05T02:02:51.708Z,998.01
2017-11-05T02:07:47.977Z,997.96
2017-11-05T02:12:44.330Z,997.99
2017-11-05T02:17:39.769Z,997.94
2017-11-05T02:22:35.957Z,997.81
2017-11-05T02:27:31.774Z,997.79
2017-11-05T02:32:27.443Z,997.83
2017-11-05T02:37:25.531Z,997.71
2017-11-05T02:42:20.634Z,997.86
2017-11-05T02:47:16.523Z,997.91
2017-11-05T02:52:13.252Z,997.93
2017-11-05T02:57:08.970Z,997.89
2017-11-05T03:02:04.825Z,997.89
2017-11-05T03:07:00.623Z,997.92
2017-11-05T03:11:56.602Z,997.99
2017-11-05T03:16:53.085Z,997.98
2017-11-05T03:21:49.484Z,998.02
2017-11-05T03:26:45.209Z,997.97
2017-11-05T03:31:40.722Z,997.95
2017-11-05T03:36:36.649Z,998.04
2017-11-05T03:41:33.768Z,998.10
2017-11-05T03:46:29.289Z,998.03
2017-11-05T03:51:25.129Z,998.01
2017-11-05T03:56:21.193Z,998.11
2017-11-05T04:01:18.335Z,998.08
2017-11-05T04:06:14.835Z,998.03
2017-11-05T04:11:10.650Z,998.03
2017-11-05T04:16:08.316Z,997.98
2017-11-05T04:21:04.808Z,997.93
2017-11-05T04:26:01.849Z,997.87
2017-11-05T04:30:58.038Z,997.88
2017-11-05T04:35:53.654Z,997.85
2017-11-05T04:40:50.589Z,997.88
2017-11-05T04:45:45.850Z,997.91
2017-11-05T04:50:41.694Z,997.91
2017-11-05T04:55:37.421Z,998.03
2017-11-05T05:00:33.911Z,997.90
2017-11-05T05:05:29.805Z,997.85
2017-11-05T05:10:27.116Z,997.94
2017-11-05T05:15:22.621Z,997.90
2017-11-05T05:20:19.409Z,997.95
2017-11-05T05:25:15.927Z,998.04
2017-11-05T05:30:11.529Z,997.95
2017-11-05T05:35:07.301Z,998.02
2017-11-05T05:40:04.101Z,998.00
2017-11-05T05:45:01.530Z,998.06
2017-11-05T05:49:58.091Z,998.08
2017-11-05T05:54:53.459Z,998.08
2017-11-05T05:59:49.215Z,998.28
2017-11-05T06:04:45.549Z,998.21
2017-11-05T06:09:41.484Z,998.38
2017-11-05T06:14:37.157Z,998.42
2017-11-05T06:19:34.049Z,998.47
2017-11-05T06:24:29.448Z,998.54
2017-11-05T06:29:25.175Z,998.68
2017-11-05T06:34:21.326Z,998.60
2017-11-05T06:39:17.304Z,998.70
2017-11-05T06:44:13.104Z,998.84
2017-11-05T06:49:08.846Z,998.95
2017-11-05T06:54:04.218Z,999.14
2017-11-05T06:59:00.195Z,999.15
2017-11-05T07:03:56.168Z,999.26
2017-11-05T07:08:52.184Z,999.30
2017-11-05T07:13:47.980Z,999.48
2017-11-05T07:18:44.916Z,999.44
2017-11-05T07:23:41.493Z,999.66
2017-11-05T07:28:36.879Z,999.76
2017-11-05T07:33:32.537Z,999.89
2017-11-05T07:38:28.627Z,999.87
2017-11-05T07:43:24.225Z,999.98
2017-11-05T07:48:21.825Z,1000.09
2017-11-05T07:53:18.234Z,1000.26
2017-11-05T07:58:14.423Z,1000.09
2017-11-05T08:03:09.913Z,1000.24
2017-11-05T08:08:06.644Z,1000.42
2017-11-05T08:13:03.343Z,1000.45
2017-11-05T08:17:59.778Z,1000.46
2017-11-05T08:22:55.361Z,1000.45
2017-11-05T08:27:52.185Z,1000.57
2017-11-05T08:32:47.861Z,1000.52
2017-11-05T08:37:44.910Z,1000.59
2017-11-05T08:42:41.308Z,1000.57
2017-11-05T08:47:39.379Z,1000.41
2017-11-05T08:52:35.889Z,1000.52
2017-11-05T08:57:31.329Z,1000.54
2017-11-05T09:02:28.365Z,1000.66
2017-11-05T09:07:23.965Z,1000.62
2017-11-05T09:12:19.814Z,1000.69
2017-11-05T09:17:16.639Z,1000.76
2017-11-05T09:22:11.971Z,1000.82
2017-11-05T09:27:08.079Z,1000.82
2017-11-05T09:32:04.870Z,1001.04
2017-11-05T09:37:00.697Z,1001.06
2017-11-05T09:41:57.237Z,1001.15
2017-11-05T09:46:53.785Z,1001.27
2017-11-05T09:51:49.298Z,1001.29
2017-11-05T09:56:45.209Z,1001.30
2017-11-05T10:01:40.957Z,1001.40
2017-11-05T10:06:36.608Z,1001.37
2017-11-05T10:11:32.604Z,1001.58
2017-11-05T10:16:28.337Z,1001.67
2017-11-05T10:21:24.202Z,1001.80
2017-11-05T10:26:19.833Z,1001.74
2017-11-05T10:31:15.816Z,1001.67
2017-11-05T10:36:11.854Z,1001.84
2017-11-05T10:41:08.726Z,1001.86
2017-11-05T10:46:04.287Z,1001.86
2017-11-05T10:51:01.347Z,1001.89
2017-11-05T10:55:56.969Z,1001.99
2017-11-05T11:00:52.766Z,1001.94
2017-11-05T11:05:49.061Z,1002.03
2017-11-05T11:10:45.031Z,1002.02
2017-11-05T11:15:41.652Z,1002.08
2017-11-05T11:20:38.513Z,1002.13
2017-11-05T11:25:34.847Z,1002.18
2017-11-05T11:30:30.394Z,1002.19
2017-11-05T11:35:26.505Z,1002.17
2017-11-05T11:40:22.378Z,1002.24
2017-11-05T11:45:18.240Z,1002.31
2017-11-05T11:50:13.820Z,1002.29
2017-11-05T11:55:09.890Z,1002.31
2017-11-05T12:00:06.470Z,1002.29
2017-11-05T12:05:02.556Z,1002.38
2017-11-05T12:09:58.116Z,1002.39
2017-11-05T12:14:55.078Z,1002.43
2017-11-05T12:19:51.584Z,1002.45
2017-11-05T12:24:47.094Z,1002.52
2017-11-05T12:29:42.910Z,1002.56
2017-11-05T12:34:38.953Z,1002.62
2017-11-05T12:39:34.783Z,1002.61
2017-11-05T12:44:30.670Z,1002.58
2017-11-05T12:49:26.525Z,1002.54
2017-11-05T12:54:23.480Z,1002.56
2017-11-05T12:59:19.832Z,1002.62
2017-11-05T13:04:16.253Z,1002.63
2017-11-05T13:09:11.883Z,1002.73
2017-11-05T13:14:08.542Z,1002.66
2017-11-05T13:19:05.223Z,1002.86
2017-11-05T13:24:01.936Z,1002.88
2017-11-05T13:28:58.566Z,1002.75
2017-11-05T13:33:55.058Z,1002.84
2017-11-05T13:38:52.548Z,1002.85
2017-11-05T13:43:48.540Z,1002.83
2017-11-05T13:48:43.871Z,1002.96
2017-11-05T13:53:39.471Z,1003.10
2017-11-05T13:58:35.317Z,1003.07
2017-11-05T14:03:31.288Z,1003.08
2017-11-05T14:08:28.056Z,1003.17
2017-11-05T14:13:23.692Z,1003.24
2017-11-05T14:18:20.611Z,1003.20
2017-11-05T14:23:16.108Z,1003.22
2017-11-05T14:28:11.826Z,1003.31
2017-11-05T14:33:08.286Z,1003.21
2017-11-05T14:38:04.871Z,1003.32
2017-11-05T14:43:01.232Z,1003.37
2017-11-05T14:47:57.891Z,1003.47
2017-11-05T14:52:53.420Z,1003.52
2017-11-05T14:57:50.156Z,1003.59
2017-11-05T15:02:45.419Z,1003.74
2017-11-05T15:07:42.193Z,1003.99
2017-11-05T15:12:38.994Z,1004.05
2017-11-05T15:17:34.915Z,1004.06
2017-11-05T15:22:31.432Z,1004.20
2017-11-05T15:27:26.928Z,1004.27
2017-11-05T15:32:22.177Z,1004.32
2017-11-05T15:37:18.049Z,1004.43
2017-11-05T15:42:13.774Z,1004.43
2017-11-05T15:47:09.461Z,1004.60
2017-11-05T15:52:07.847Z,1004.66
2017-11-05T15:57:04.053Z,1004.68
2017-11-05T16:01:59.869Z,1004.95
2017-11-05T16:06:55.383Z,1004.96
2017-11-05T16:11:51.362Z,1005.15
2017-11-05T16:16:47.192Z,1005.24
2017-11-05T16:21:43.822Z,1005.28
2017-11-05T16:26:40.398Z,1005.36
2017-11-05T16:31:35.346Z,1005.42
2017-11-05T16:36:32.381Z,1005.51
2017-11-05T16:41:27.698Z,1005.64
2017-11-05T16:46:24.455Z,1005.80
2017-11-05T16:51:20.938Z,1005.95
2017-11-05T16:56:16.484Z,1005.99
2017-11-05T17:01:11.948Z,1006.10
2017-11-05T17:06:07.709Z,1006.12
2017-11-05T17:11:03.247Z,1006.09
2017-11-05T17:15:58.873Z,1006.13
2017-11-05T17:20:55.581Z,1006.20
2017-11-05T17:25:50.963Z,1006.24
2017-11-05T17:30:46.623Z,1006.27
2017-11-05T17:35:42.371Z,1006.44
2017-11-05T17:40:38.256Z,1006.54
2017-11-05T17:45:35.102Z,1006.51
2017-11-05T17:50:30.562Z,1006.66
2017-11-05T17:55:26.156Z,1006.72
2017-11-05T18:00:22.928Z,1006.70
2017-11-05T18:05:19.090Z,1006.79
2017-11-05T18:10:15.860Z,1006.86
2017-11-05T18:15:12.204Z,1006.83
2017-11-05T18:20:07.730Z,1006.91
2017-11-05T18:25:04.625Z,1006.90
2017-11-05T18:29:59.773Z,1007.06
2017-11-05T18:34:56.834Z,1007.07
2017-11-05T18:39:52.076Z,1007.09
2017-11-05T18:44:48.212Z,1007.08
2017-11-05T18:49:43.807Z,1007.27
2017-11-05T18:54:41.047Z,1007.25
2017-11-05T18:59:36.698Z,1007.42
2017-11-05T19:04:32.456Z,1007.41
2017-11-05T19:09:28.058Z,1007.54
2017-11-05T19:14:24.008Z,1007.60
2017-11-05T19:19:20.706Z,1007.68
2017-11-05T19:24:16.792Z,1007.69
2017-11-05T19:29:12.602Z,1007.66
2017-11-05T19:39:08.341Z,1007.80
2017-11-05T19:44:04.907Z,1007.83
2017-11-05T19:49:01.228Z,1007.95
2017-11-05T19:53:57.621Z,1007.92
2017-11-05T19:58:54.210Z,1007.94
2017-11-05T20:03:49.489Z,1008.08
2017-11-05T20:08:45.386Z,1008.02
2017-11-05T20:13:41.628Z,1008.04
2017-11-05T20:18:37.412Z,1008.16
2017-11-05T20:23:33.082Z,1008.23
2017-11-05T20:28:28.689Z,1008.31
2017-11-05T20:33:25.320Z,1008.38
2017-11-05T20:38:20.725Z,1008.44
2017-11-05T20:43:17.517Z,1008.38
2017-11-05T20:48:13.539Z,1008.47
2017-11-05T20:53:09.247Z,1008.56
2017-11-05T20:58:06.109Z,1008.61
2017-11-05T21:03:01.584Z,1008.73
2017-11-05T21:07:57.420Z,1008.83
2017-11-05T21:12:52.693Z,1008.79
2017-11-05T21:17:48.145Z,1008.92
2017-11-05T21:22:44.081Z,1008.98
2017-11-05T21:27:39.882Z,1008.94
2017-11-05T21:32:35.671Z,1008.99
2017-11-05T21:37:31.805Z,1008.91
2017-11-05T21:42:27.617Z,1008.97
2017-11-05T21:47:23.656Z,1008.94
2017-11-05T21:52:20.351Z,1008.97
2017-11-05T21:57:16.908Z,1009.03
2017-11-05T22:02:12.363Z,1009.03
2017-11-05T22:07:08.014Z,1009.06
2017-11-05T22:12:04.517Z,1009.12
2017-11-05T22:17:00.229Z,1009.20
2017-11-05T22:21:57.802Z,1009.28
2017-11-05T22:26:55.238Z,1009.22
2017-11-05T22:31:51.573Z,1009.31
2017-11-05T22:36:46.940Z,1009.42
2017-11-05T22:41:43.789Z,1009.38
2017-11-05T22:46:39.103Z,1009.41
2017-11-05T22:51:35.826Z,1009.50
2017-11-05T22:56:33.172Z,1009.60
2017-11-05T23:01:29.354Z,1009.52
2017-11-05T23:06:25.646Z,1009.60
2017-11-05T23:11:20.546Z,1009.53
2017-11-05T23:16:16.227Z,1009.63
2017-11-05T23:21:12.212Z,1009.51
2017-11-05T23:26:08.099Z,1009.56
2017-11-05T23:31:05.478Z,1009.48
2017-11-05T23:36:00.731Z,1009.58
2017-11-05T23:40:56.434Z,1009.57
2017-11-05T23:45:52.267Z,1009.57
2017-11-05T23:50:48.055Z,1009.59
2017-11-05T23:55:44.134Z,1009.59
